This is the latest recevied weather packets stored in our database for station/object EA4HRG-10. If no packets are shown the sender has not sent any weather packets the latest 10 day(s).
| Time | Temp. | Humidity | Pressure | Rain* | Wind** | Luminosity | Snow |
|---|---|---|---|---|---|---|---|
| 1788532840 | 42.22° C | 10% | 1012.2 hPa | - | - | - | - |
| 1788531940 | 42.22° C | 9% | 1012.3 hPa | - | - | - | - |
| 1788531040 | 41.67° C | 9% | 1012.5 hPa | - | - | - | - |
| 1788530140 | 41.67° C | 9% | 1012.7 hPa | - | - | - | - |
| 1788529240 | 42.22° C | 9% | 1012.6 hPa | - | - | - | - |
| 1788528340 | 41.67° C | 9% | 1012.9 hPa | - | - | - | - |
| 1788527440 | 41.67° C | 9% | 1013.2 hPa | - | - | - | - |
| 1788526540 | 42.22° C | 9% | 1013.1 hPa | - | - | - | - |
| 1788525640 | 41.67° C | 9% | 1013.5 hPa | - | - | - | - |
| 1788524740 | 41.11° C | 10% | 1013.9 hPa | - | - | - | - |
| 1788523840 | 41.11° C | 9% | 1014.1 hPa | - | - | - | - |
| 1788522940 | 40.56° C | 10% | 1014.7 hPa | - | - | - | - |
| 1788522040 | 39.44° C | 10% | 1015 hPa | - | - | - | - |
| 1788521140 | 40° C | 10% | 1014.9 hPa | - | - | - | - |
| 1788520240 | 40° C | 10% | 1014.8 hPa | - | - | - | - |
| 1788519340 | 41.67° C | 9% | 1014.6 hPa | - | - | - | - |
| 1788518440 | 42.22° C | 10% | 1014.5 hPa | - | - | - | - |
| 1788517540 | 43.33° C | 9% | 1014.2 hPa | - | - | - | - |
| 1788516640 | 46.11° C | 9% | 1013.6 hPa | - | - | - | - |
| 1788515740 | 47.78° C | 8% | 1013.2 hPa | - | - | - | - |
| 1788514841 | 47.22° C | 10% | 1013.6 hPa | - | - | - | - |
| 1788513940 | 46.11° C | 11% | 1013.9 hPa | - | - | - | - |
| 1788513040 | 44.44° C | 11% | 1014.5 hPa | - | - | - | - |
| 1788512140 | 39.44° C | 14% | 1016.3 hPa | - | - | - | - |
| 1788511240 | 33.33° C | 20% | 1018.2 hPa | - | - | - | - |
* Rain since midnight (hover to see other rain measurements)
** Current wind speed in m/s (hover to see current wind gust speed)